createdAt,value
2022-08-26T00:03:02.093Z,3.65
2022-08-26T00:08:04.232Z,3.17
2022-08-26T00:13:06.982Z,4.22
2022-08-26T00:18:16.759Z,3.70
2022-08-26T00:23:24.454Z,4.28
2022-08-26T00:28:26.132Z,3.55
2022-08-26T00:33:27.471Z,4.18
2022-08-26T00:38:28.914Z,4.22
2022-08-26T00:43:46.199Z,5.13
2022-08-26T00:48:53.875Z,4.07
2022-08-26T00:54:01.954Z,3.78
2022-08-26T00:59:08.270Z,6.20
2022-08-26T01:04:11.731Z,4.65
2022-08-26T01:09:13.282Z,4.75
2022-08-26T01:14:16.911Z,5.68
2022-08-26T01:19:37.430Z,5.55
2022-08-26T01:24:41.611Z,4.40
2022-08-26T01:29:45.185Z,3.90
2022-08-26T01:34:48.225Z,4.15
2022-08-26T01:45:05.229Z,4.35
2022-08-26T01:50:11.201Z,8.55
2022-08-26T01:55:15.198Z,5.70
2022-08-26T02:00:35.622Z,5.25
2022-08-26T02:05:37.512Z,4.13
2022-08-26T02:10:38.892Z,5.15
2022-08-26T02:15:44.346Z,5.32
2022-08-26T02:20:46.306Z,4.75
2022-08-26T02:26:03.455Z,5.43
2022-08-26T02:31:05.205Z,4.97
2022-08-26T02:36:09.409Z,5.82
2022-08-26T02:41:13.701Z,5.20
2022-08-26T02:46:21.583Z,5.20
2022-08-26T02:51:31.254Z,5.78
2022-08-26T02:56:35.311Z,5.13
2022-08-26T03:01:37.734Z,6.97
2022-08-26T03:06:40.737Z,5.20
2022-08-26T03:11:42.909Z,6.97
2022-08-26T03:16:45.026Z,5.53
2022-08-26T03:21:50.464Z,5.55
2022-08-26T03:26:53.821Z,5.53
2022-08-26T03:31:55.546Z,5.60
2022-08-26T03:36:56.891Z,6.28
2022-08-26T03:41:58.801Z,5.20
2022-08-26T03:47:00.154Z,7.35
2022-08-26T03:52:03.313Z,6.60
2022-08-26T03:57:05.180Z,4.63
2022-08-26T04:02:11.337Z,7.15
2022-08-26T04:07:13.137Z,8.15
2022-08-26T04:12:14.433Z,5.88
2022-08-26T04:17:15.804Z,5.43
2022-08-26T04:22:24.818Z,6.20
2022-08-26T04:27:26.448Z,6.43
2022-08-26T04:32:28.481Z,5.78
2022-08-26T04:37:31.150Z,7.95
2022-08-26T04:42:34.267Z,5.85
2022-08-26T04:47:35.636Z,6.50
2022-08-26T04:52:37.264Z,5.65
2022-08-26T04:57:38.730Z,6.70
2022-08-26T05:02:41.105Z,7.40
2022-08-26T05:07:44.551Z,6.07
2022-08-26T05:12:45.950Z,6.00
2022-08-26T05:17:47.692Z,7.28
2022-08-26T05:22:49.266Z,6.10
2022-08-26T05:27:52.909Z,6.32
2022-08-26T05:32:55.478Z,7.80
2022-08-26T05:37:56.831Z,6.28
2022-08-26T05:43:00.171Z,7.38
2022-08-26T05:48:03.876Z,8.55
2022-08-26T05:53:09.251Z,6.28
2022-08-26T05:58:11.986Z,5.82
2022-08-26T06:03:13.366Z,8.27
2022-08-26T06:08:14.787Z,5.88
2022-08-26T06:13:18.262Z,6.78
2022-08-26T06:18:36.238Z,9.05
2022-08-26T06:23:56.319Z,8.73
2022-08-26T06:28:58.554Z,8.00
2022-08-26T06:34:01.290Z,10.68
2022-08-26T06:39:06.097Z,6.63
2022-08-26T06:44:07.798Z,8.73
2022-08-26T06:49:10.069Z,8.70
2022-08-26T06:54:11.773Z,6.53
2022-08-26T06:59:13.133Z,7.10
2022-08-26T07:04:22.106Z,6.28
2022-08-26T07:09:27.846Z,6.28
2022-08-26T07:14:29.221Z,8.32
2022-08-26T07:19:31.744Z,7.85
2022-08-26T07:24:35.496Z,7.45
2022-08-26T07:29:39.320Z,6.97
2022-08-26T07:34:42.200Z,6.68
2022-08-26T07:44:45.873Z,7.18
2022-08-26T07:49:47.189Z,8.15
2022-08-26T07:54:58.721Z,9.20
2022-08-26T08:00:00.918Z,6.00
2022-08-26T08:05:02.322Z,6.90
2022-08-26T08:10:09.617Z,8.47
2022-08-26T08:15:13.835Z,7.32
2022-08-26T08:20:15.285Z,7.32
2022-08-26T08:25:16.634Z,8.32
2022-08-26T08:30:23.019Z,7.13
2022-08-26T08:35:26.265Z,7.13
2022-08-26T08:40:27.904Z,8.40
2022-08-26T08:45:37.115Z,8.68
2022-08-26T08:50:48.970Z,5.93
2022-08-26T08:55:59.129Z,7.57
2022-08-26T09:01:04.674Z,12.25
2022-08-26T09:06:17.359Z,8.23
2022-08-26T09:11:20.378Z,8.93
2022-08-26T09:16:32.011Z,8.68
2022-08-26T09:21:33.749Z,6.07
2022-08-26T09:26:45.820Z,6.65
2022-08-26T09:31:48.870Z,6.70
2022-08-26T09:42:22.307Z,7.03
2022-08-26T09:47:31.827Z,7.45
2022-08-26T09:52:33.413Z,10.38
2022-08-26T09:57:43.838Z,6.65
2022-08-26T10:02:47.770Z,9.18
2022-08-26T10:07:50.864Z,11.27
2022-08-26T10:13:04.865Z,6.88
2022-08-26T10:18:14.166Z,5.88
2022-08-26T10:23:21.438Z,8.25
2022-08-26T10:28:44.282Z,8.57
2022-08-26T10:38:48.380Z,5.65
2022-08-26T10:43:58.801Z,9.57
2022-08-26T10:49:06.519Z,8.50
2022-08-26T10:54:21.469Z,6.97
2022-08-26T10:59:50.707Z,4.65
2022-08-26T11:05:14.630Z,6.72
2022-08-26T11:10:16.460Z,6.15
2022-08-26T11:15:24.697Z,6.80
2022-08-26T11:20:45.872Z,6.25
2022-08-26T11:26:16.473Z,5.68
2022-08-26T11:31:39.274Z,5.85
2022-08-26T11:36:42.973Z,6.78
2022-08-26T11:41:47.130Z,9.50
2022-08-26T11:46:53.880Z,11.98
2022-08-26T11:52:20.889Z,9.63
2022-08-26T11:57:22.868Z,12.13
2022-08-26T12:02:25.106Z,11.20
2022-08-26T12:07:29.339Z,10.10
2022-08-26T12:12:40.262Z,10.95
2022-08-26T12:17:42.603Z,11.18
2022-08-26T12:22:48.089Z,14.13
2022-08-26T12:27:53.752Z,11.80
2022-08-26T12:33:22.288Z,10.88
2022-08-26T12:38:26.830Z,9.90
2022-08-26T12:43:37.459Z,10.38
2022-08-26T12:48:42.501Z,12.02
2022-08-26T12:53:44.125Z,11.18
2022-08-26T13:04:00.761Z,9.32
2022-08-26T13:09:24.859Z,8.63
2022-08-26T13:14:26.213Z,10.00
2022-08-26T13:19:28.002Z,12.25
2022-08-26T13:24:38.486Z,9.80
2022-08-26T13:29:40.229Z,7.30
2022-08-26T13:34:42.367Z,6.03
2022-08-26T13:39:43.796Z,6.00
2022-08-26T13:49:46.824Z,9.07
2022-08-26T13:54:48.588Z,10.55
2022-08-26T13:59:51.704Z,10.93
2022-08-26T14:04:54.706Z,11.30
2022-08-26T14:09:56.290Z,11.27
2022-08-26T14:19:59.178Z,12.23
2022-08-26T14:25:00.809Z,11.40
2022-08-26T14:30:05.163Z,9.95
2022-08-26T14:35:17.823Z,10.45
2022-08-26T14:40:22.033Z,10.60
2022-08-26T14:45:26.221Z,11.27
2022-08-26T14:50:27.830Z,10.82
2022-08-26T14:55:32.299Z,10.05
2022-08-26T15:00:39.946Z,9.38
2022-08-26T15:05:48.000Z,8.98
2022-08-26T15:10:50.697Z,7.75
2022-08-26T15:15:52.089Z,8.77
2022-08-26T15:20:53.516Z,7.53
2022-08-26T15:25:54.905Z,8.43
2022-08-26T15:31:08.163Z,12.40
2022-08-26T15:36:10.607Z,11.75
2022-08-26T15:41:12.302Z,12.02
2022-08-26T15:46:13.847Z,13.48
2022-08-26T15:51:33.851Z,12.77
2022-08-26T15:56:37.382Z,13.20
2022-08-26T16:01:40.336Z,16.80
2022-08-26T16:06:43.242Z,13.23
2022-08-26T16:11:44.601Z,13.10
2022-08-26T16:16:47.019Z,13.00
2022-08-26T16:21:50.629Z,13.25
2022-08-26T16:26:52.054Z,13.20
2022-08-26T16:31:54.524Z,13.23
2022-08-26T16:36:55.871Z,14.30
2022-08-26T16:41:57.200Z,14.88
2022-08-26T16:46:58.911Z,15.53
2022-08-26T16:52:00.268Z,18.10
2022-08-26T16:57:02.086Z,19.10
2022-08-26T17:02:03.836Z,20.20
2022-08-26T17:07:05.861Z,21.40
2022-08-26T17:12:07.496Z,24.25
2022-08-26T17:17:08.902Z,24.90
2022-08-26T17:22:10.981Z,27.08
2022-08-26T17:27:12.367Z,26.25
2022-08-26T17:32:13.723Z,26.90
2022-08-26T17:37:15.071Z,25.73
2022-08-26T17:42:18.725Z,26.67
2022-08-26T17:47:20.111Z,26.25
2022-08-26T17:52:21.497Z,24.17
2022-08-26T17:57:23.792Z,24.17
2022-08-26T18:02:25.176Z,26.23
2022-08-26T18:07:26.603Z,22.58
2022-08-26T18:12:27.980Z,21.52
2022-08-26T18:17:30.125Z,21.00
2022-08-26T18:22:31.429Z,20.17
2022-08-26T18:27:33.034Z,19.88
2022-08-26T18:32:35.318Z,17.52
2022-08-26T18:37:37.408Z,19.15
2022-08-26T18:42:53.947Z,17.73
2022-08-26T18:47:55.654Z,17.25
2022-08-26T18:52:57.034Z,17.40
2022-08-26T18:57:58.554Z,17.50
2022-08-26T19:02:59.935Z,16.05
2022-08-26T19:08:02.342Z,16.43
2022-08-26T19:13:04.957Z,17.15
2022-08-26T19:18:09.706Z,15.70
2022-08-26T19:23:30.378Z,14.65
2022-08-26T19:28:33.322Z,15.63
2022-08-26T19:33:34.639Z,14.40
2022-08-26T19:38:36.037Z,14.38
2022-08-26T19:43:40.013Z,14.70
2022-08-26T19:48:45.650Z,13.35
2022-08-26T19:53:49.510Z,13.73
2022-08-26T19:59:00.546Z,14.07
2022-08-26T20:04:04.241Z,13.93
2022-08-26T20:09:05.559Z,15.23
2022-08-26T20:14:11.374Z,13.38
2022-08-26T20:19:37.488Z,13.23
2022-08-26T20:24:39.183Z,12.90
2022-08-26T20:29:43.272Z,12.95
2022-08-26T20:34:45.697Z,13.18
2022-08-26T20:39:48.169Z,13.07
2022-08-26T20:44:55.124Z,12.15
2022-08-26T20:49:56.575Z,10.40
2022-08-26T20:55:06.145Z,13.43
2022-08-26T21:00:08.082Z,12.50
2022-08-26T21:05:10.470Z,14.75
2022-08-26T21:10:12.488Z,13.40
2022-08-26T21:15:14.274Z,14.63
2022-08-26T21:20:18.524Z,14.48
2022-08-26T21:25:22.727Z,15.20
2022-08-26T21:30:24.058Z,14.13
2022-08-26T21:35:25.364Z,14.63
2022-08-26T21:40:27.896Z,13.45
2022-08-26T21:45:29.367Z,13.20
2022-08-26T21:50:30.730Z,13.10
2022-08-26T21:55:35.606Z,12.75
2022-08-26T22:00:36.915Z,15.13
2022-08-26T22:05:45.934Z,11.32
2022-08-26T22:10:52.620Z,12.20
2022-08-26T22:15:54.283Z,12.50
2022-08-26T22:20:58.071Z,10.93
2022-08-26T22:25:59.925Z,11.50
2022-08-26T22:31:01.872Z,11.93
2022-08-26T22:36:03.362Z,11.23
2022-08-26T22:41:08.430Z,10.70
2022-08-26T22:46:10.584Z,12.27
2022-08-26T22:51:12.220Z,11.77
2022-08-26T22:56:14.402Z,11.18
2022-08-26T23:01:16.869Z,11.43
2022-08-26T23:06:18.366Z,10.48
2022-08-26T23:11:19.661Z,11.02
2022-08-26T23:16:21.209Z,10.32
2022-08-26T23:21:22.588Z,13.50
2022-08-26T23:26:24.005Z,11.00
2022-08-26T23:31:25.440Z,9.63
2022-08-26T23:36:26.813Z,10.55
2022-08-26T23:41:28.276Z,10.95
2022-08-26T23:46:29.622Z,9.50
2022-08-26T23:51:50.082Z,11.10
2022-08-26T23:56:51.415Z,9.35
